Time;durP1;ratioP1;P1;durP2;ratioP2;P2;SDS_P1;SDS_P2;PMS_P1;PMS_P2;Temp;Humidity;BMP_temperature;BMP_pressure;BME280_temperature;BME280_humidity;BME280_pressure;Samples;Min_cycle;Max_cycle;Signal;HPM_P1;HPM_P2
2024/01/19 00:00:54;;;;;;;;;;;;;;;7.02;90.01;97927.47;4464373;32;35057;-87
2024/01/19 00:03:23;;;;;;;;;;;;;;;7.03;89.76;97934.34;4461563;32;33015;-86
2024/01/19 00:05:55;;;;;;;;;;;;;;;6.73;92.14;97930.00;4449262;32;33902;-86
2024/01/19 00:08:31;;;;;;;;;;;;;;;6.64;91.50;97933.63;4433021;32;34655;-86
2024/01/19 00:11:00;;;;;;;;;;;;;;;6.72;91.46;97942.03;4449276;32;34739;-87
2024/01/19 00:13:29;;;;;;;;;;;;;;;6.40;92.31;97948.84;4446175;32;31954;-87
2024/01/19 00:15:59;;;;;;;;;;;;;;;6.32;92.48;97973.91;4438852;32;36076;-87
2024/01/19 00:18:31;;;;;;;;;;;;;;;6.29;92.36;97975.75;4462950;32;35605;-87
2024/01/19 00:21:01;;;;;;;;;;;;;;;6.04;92.90;97985.72;4448838;32;34593;-87
2024/01/19 00:23:31;;;;;;;;;;;;;;;6.08;93.32;98003.66;4467039;32;32998;-87
2024/01/19 00:26:01;;;;;;;;;;;;;;;6.25;90.61;98013.56;4463691;32;33870;-86
2024/01/19 00:28:34;;;;;;;;;;;;;;;5.71;93.04;98013.88;4464774;32;34607;-87
2024/01/19 00:31:07;;;;;;;;;;;;;;;5.89;91.68;98031.47;4463520;32;34550;-86
2024/01/19 00:33:39;;;;;;;;;;;;;;;5.79;90.96;98035.13;4463663;32;32387;-86
2024/01/19 00:36:09;;;;;;;;;;;;;;;5.86;91.24;98036.69;4468405;32;33775;-86
2024/01/19 00:38:39;;;;;;;;;;;;;;;5.59;90.89;98050.97;4465781;32;34770;-87
2024/01/19 00:41:08;;;;;;;;;;;;;;;5.56;90.41;98054.47;4463110;32;33659;-86
2024/01/19 00:43:39;;;;;;;;;;;;;;;5.48;89.90;98069.16;4462659;32;33152;-86
2024/01/19 00:46:08;;;;;;;;;;;;;;;5.43;88.30;98068.41;4466785;32;34223;-86
2024/01/19 00:48:40;;;;;;;;;;;;;;;5.49;87.84;98077.75;4453597;32;31874;-85
2024/01/19 00:51:10;;;;;;;;;;;;;;;5.27;88.22;98088.44;4463555;32;34373;-85
2024/01/19 00:53:39;;;;;;;;;;;;;;;5.41;86.55;98095.87;4462744;32;33375;-84
2024/01/19 00:56:11;;;;;;;;;;;;;;;5.08;86.07;98100.75;4465958;32;33440;-85
2024/01/19 00:58:48;;;;;;;;;;;;;;;4.88;87.62;98095.06;4468762;32;34690;-87
2024/01/19 01:01:18;;;;;;;;;;;;;;;5.01;86.85;98103.44;4462892;32;34383;-84
2024/01/19 01:03:50;;;;;;;;;;;;;;;4.58;87.01;98102.38;4462617;32;34209;-86
2024/01/19 01:06:19;;;;;;;;;;;;;;;4.76;83.35;98120.94;4464716;32;34117;-85
2024/01/19 01:08:58;;;;;;;;;;;;;;;4.20;84.03;98111.44;4462522;32;33824;-85
2024/01/19 01:11:31;;;;;;;;;;;;;;;4.18;83.46;98114.91;4468449;32;34403;-84
2024/01/19 01:14:00;;;;;;;;;;;;;;;3.84;83.68;98131.56;4449414;32;34045;-83
2024/01/19 01:16:33;;;;;;;;;;;;;;;3.38;85.08;98126.94;4465165;32;33782;-83
2024/01/19 01:19:03;;;;;;;;;;;;;;;3.24;85.47;98130.47;4448154;32;32389;-83
2024/01/19 01:21:32;;;;;;;;;;;;;;;3.26;84.99;98131.28;4468874;32;34135;-83
2024/01/19 01:24:01;;;;;;;;;;;;;;;3.35;84.07;98138.91;4462675;32;33133;-83
2024/01/19 01:26:30;;;;;;;;;;;;;;;3.23;83.16;98155.25;4468270;32;33985;-84
2024/01/19 01:29:02;;;;;;;;;;;;;;;2.75;83.54;98159.88;4447811;32;34656;-83
2024/01/19 01:31:32;;;;;;;;;;;;;;;2.75;83.57;98170.09;4461000;32;34505;-83
2024/01/19 01:34:03;;;;;;;;;;;;;;;2.63;84.31;98163.34;4458451;32;33045;-83
2024/01/19 01:36:39;;;;;;;;;;;;;;;2.82;84.06;98169.22;4467210;32;36110;-84
2024/01/19 01:39:11;;;;;;;;;;;;;;;2.60;84.27;98171.06;4451945;32;35321;-84
2024/01/19 01:41:48;;;;;;;;;;;;;;;2.43;84.43;98186.50;4432809;32;31867;-83
2024/01/19 01:44:18;;;;;;;;;;;;;;;2.42;84.40;98189.94;4450336;32;33252;-86
2024/01/19 01:46:51;;;;;;;;;;;;;;;2.40;84.42;98206.16;4468298;32;33583;-85
2024/01/19 01:49:22;;;;;;;;;;;;;;;2.26;83.98;98198.53;4449050;32;34404;-86
2024/01/19 01:51:52;;;;;;;;;;;;;;;2.24;84.70;98200.25;4461669;32;34952;-86
2024/01/19 01:54:23;;;;;;;;;;;;;;;2.37;83.87;98201.91;4462473;32;32976;-85
2024/01/19 01:56:52;;;;;;;;;;;;;;;2.47;83.00;98210.37;4467372;32;34827;-85
2024/01/19 01:59:23;;;;;;;;;;;;;;;2.38;82.17;98216.38;4463337;32;34714;-85
2024/01/19 02:01:54;;;;;;;;;;;;;;;2.10;83.27;98221.62;4463028;32;33909;-85
2024/01/19 02:04:25;;;;;;;;;;;;;;;2.09;82.68;98203.69;4462794;32;33917;-85
2024/01/19 02:06:54;;;;;;;;;;;;;;;2.19;82.31;98230.09;4452730;32;34623;-85
2024/01/19 02:09:26;;;;;;;;;;;;;;;2.10;82.73;98238.66;4452692;32;34097;-85
2024/01/19 02:11:55;;;;;;;;;;;;;;;2.01;82.16;98248.94;4446657;32;33633;-84
2024/01/19 02:14:25;;;;;;;;;;;;;;;1.79;83.16;98251.53;4459544;32;32774;-85
2024/01/19 02:16:55;;;;;;;;;;;;;;;1.85;82.66;98258.31;4467477;32;33635;-85
2024/01/19 02:19:27;;;;;;;;;;;;;;;1.88;82.38;98248.06;4468016;32;34177;-86
2024/01/19 02:21:59;;;;;;;;;;;;;;;1.93;82.18;98256.59;4464671;32;34189;-85
2024/01/19 02:24:31;;;;;;;;;;;;;;;1.99;81.49;98261.72;4462187;32;34066;-85
2024/01/19 02:27:00;;;;;;;;;;;;;;;1.88;82.02;98273.66;4468040;32;33874;-84
2024/01/19 02:29:29;;;;;;;;;;;;;;;1.80;81.79;98267.69;4462284;32;34139;-85
2024/01/19 02:31:59;;;;;;;;;;;;;;;1.85;81.56;98271.09;4467860;32;34179;-85
2024/01/19 02:34:32;;;;;;;;;;;;;;;2.02;81.04;98282.16;4462168;32;33996;-85
2024/01/19 02:37:01;;;;;;;;;;;;;;;1.88;81.02;98287.28;4463914;32;33643;-84
2024/01/19 02:39:39;;;;;;;;;;;;;;;1.83;80.37;98291.53;4453068;32;33504;-86
2024/01/19 02:42:08;;;;;;;;;;;;;;;1.79;80.55;98299.22;4446606;32;32527;-85
2024/01/19 02:44:37;;;;;;;;;;;;;;;1.74;80.20;98290.69;4466979;32;33537;-85
2024/01/19 02:47:06;;;;;;;;;;;;;;;1.80;80.15;98306.91;4453121;32;33241;-85
2024/01/19 02:49:35;;;;;;;;;;;;;;;1.60;80.23;98309.47;4446511;32;33739;-85
2024/01/19 02:52:05;;;;;;;;;;;;;;;1.81;80.31;98328.19;4446178;32;33256;-85
2024/01/19 02:54:35;;;;;;;;;;;;;;;2.18;78.41;98329.03;4454653;32;32707;-85
2024/01/19 02:57:08;;;;;;;;;;;;;;;2.00;78.79;98331.59;4458636;32;34130;-86
2024/01/19 02:59:43;;;;;;;;;;;;;;;2.02;78.08;98328.19;4462177;32;34728;-86
2024/01/19 03:02:12;;;;;;;;;;;;;;;2.06;77.68;98332.47;4462144;32;34289;-86
2024/01/19 03:04:43;;;;;;;;;;;;;;;1.96;78.10;98342.69;4464737;32;32910;-85
2024/01/19 03:07:12;;;;;;;;;;;;;;;1.86;78.18;98332.47;4467521;32;32757;-87
2024/01/19 03:09:46;;;;;;;;;;;;;;;1.96;78.32;98345.25;4451976;32;33298;-85
2024/01/19 03:12:15;;;;;;;;;;;;;;;1.94;77.72;98339.31;4461815;32;34246;-85
2024/01/19 03:14:46;;;;;;;;;;;;;;;1.76;77.57;98346.09;4453958;32;33168;-85
2024/01/19 03:17:15;;;;;;;;;;;;;;;1.52;77.44;98341.81;4452021;32;34612;-86
2024/01/19 03:19:45;;;;;;;;;;;;;;;1.49;78.09;98355.44;4462601;32;34824;-85
2024/01/19 03:22:14;;;;;;;;;;;;;;;1.86;76.93;98354.63;4462130;32;33651;-86
2024/01/19 03:24:44;;;;;;;;;;;;;;;1.69;77.26;98360.59;4461280;32;33113;-85
2024/01/19 03:27:14;;;;;;;;;;;;;;;1.70;76.81;98358.91;4463242;32;33776;-85
2024/01/19 03:29:47;;;;;;;;;;;;;;;1.71;76.30;98363.13;4452862;32;33988;-84
2024/01/19 03:32:17;;;;;;;;;;;;;;;1.48;77.41;98375.91;4461509;32;34889;-86
2024/01/19 03:34:52;;;;;;;;;;;;;;;1.61;77.41;98402.34;4461834;32;33008;-86
2024/01/19 03:37:20;;;;;;;;;;;;;;;1.73;76.68;98374.22;4462395;32;33889;-85
2024/01/19 03:39:52;;;;;;;;;;;;;;;1.59;76.46;98386.97;4466872;32;34146;-85
2024/01/19 03:42:22;;;;;;;;;;;;;;;1.73;76.17;98387.00;4461634;32;34270;-85
2024/01/19 03:44:53;;;;;;;;;;;;;;;1.80;76.40;98387.88;4461485;32;32710;-85
2024/01/19 03:47:22;;;;;;;;;;;;;;;1.67;76.58;98399.81;4463442;32;33952;-85
2024/01/19 03:49:53;;;;;;;;;;;;;;;1.71;75.68;98391.25;4462744;32;33927;-85
2024/01/19 03:52:22;;;;;;;;;;;;;;;1.76;75.70;98404.91;4435849;32;34584;-85
2024/01/19 03:55:00;;;;;;;;;;;;;;;1.74;75.91;98393.84;4430085;32;33212;-85
2024/01/19 03:57:31;;;;;;;;;;;;;;;1.60;75.70;98393.81;4435612;32;34127;-85
2024/01/19 04:00:08;;;;;;;;;;;;;;;1.56;75.68;98415.09;4430183;32;33795;-85
2024/01/19 04:02:41;;;;;;;;;;;;;;;1.71;75.53;98404.91;4425680;32;33477;-84
2024/01/19 04:05:12;;;;;;;;;;;;;;;1.46;76.02;98415.94;4419817;32;33695;-85
2024/01/19 04:07:42;;;;;;;;;;;;;;;1.62;75.49;98404.91;4431245;32;33438;-85
2024/01/19 04:10:10;;;;;;;;;;;;;;;1.69;75.50;98423.63;4414730;32;34535;-85
2024/01/19 04:12:44;;;;;;;;;;;;;;;1.86;74.95;98439.88;4415042;32;34627;-86
2024/01/19 04:15:12;;;;;;;;;;;;;;;1.83;74.71;98441.56;4423844;32;33744;-85
2024/01/19 04:17:42;;;;;;;;;;;;;;;1.94;73.74;98452.69;4424462;32;33282;-84
2024/01/19 04:20:11;;;;;;;;;;;;;;;1.99;73.72;98456.09;4429193;32;33858;-84
2024/01/19 04:22:47;;;;;;;;;;;;;;;1.85;74.15;98465.44;4420842;32;33710;-84
2024/01/19 04:25:16;;;;;;;;;;;;;;;1.71;74.85;98466.25;4425743;32;33012;-84
2024/01/19 04:27:47;;;;;;;;;;;;;;;1.90;72.81;98466.31;4430266;32;33549;-84
2024/01/19 04:30:16;;;;;;;;;;;;;;;2.12;73.34;98477.41;4422925;32;32379;-84
2024/01/19 04:32:50;;;;;;;;;;;;;;;2.05;73.17;98486.78;4426784;32;35016;-84
2024/01/19 04:35:19;;;;;;;;;;;;;;;2.03;73.04;98495.31;4424791;32;33620;-85
2024/01/19 04:37:51;;;;;;;;;;;;;;;2.14;72.76;98504.72;4421958;32;32557;-84
2024/01/19 04:40:20;;;;;;;;;;;;;;;2.26;71.72;98497.91;4433461;32;34033;-84
2024/01/19 04:42:53;;;;;;;;;;;;;;;1.99;72.50;98514.94;4431183;32;34007;-84
2024/01/19 04:45:22;;;;;;;;;;;;;;;1.84;73.21;98517.44;4430900;32;32827;-84
2024/01/19 04:47:52;;;;;;;;;;;;;;;1.87;73.16;98520.84;4428322;32;33743;-84
2024/01/19 04:50:21;;;;;;;;;;;;;;;1.69;73.64;98519.09;4438538;32;36022;-84
2024/01/19 04:52:53;;;;;;;;;;;;;;;1.76;73.24;98524.22;4452046;32;34182;-85
2024/01/19 04:55:22;;;;;;;;;;;;;;;1.91;73.23;98527.69;4453291;32;33070;-84
2024/01/19 04:57:54;;;;;;;;;;;;;;;1.95;72.92;98520.88;4453074;32;33537;-85
2024/01/19 05:00:23;;;;;;;;;;;;;;;1.91;72.31;98525.13;4453970;32;34672;-85
2024/01/19 05:05:26;;;;;;;;;;;;;;;2.23;71.74;98538.84;4451371;32;32965;-84
2024/01/19 05:08:00;;;;;;;;;;;;;;;2.06;71.29;98544.78;4454731;32;33823;-85
2024/01/19 05:10:29;;;;;;;;;;;;;;;1.78;72.09;98540.44;4433447;32;32941;-84
2024/01/19 05:13:03;;;;;;;;;;;;;;;1.81;72.41;98548.09;4452567;32;34603;-85
2024/01/19 05:15:32;;;;;;;;;;;;;;;1.83;72.18;98557.50;4447606;32;33894;-84
2024/01/19 05:18:02;;;;;;;;;;;;;;;2.05;71.44;98567.78;4454169;32;34006;-85
2024/01/19 05:20:30;;;;;;;;;;;;;;;1.87;71.94;98566.88;4447750;32;33866;-84
2024/01/19 05:23:03;;;;;;;;;;;;;;;2.08;71.00;98568.66;4448339;32;34235;-85
2024/01/19 05:25:33;;;;;;;;;;;;;;;1.88;71.20;98577.97;4459141;32;33075;-84
2024/01/19 05:28:05;;;;;;;;;;;;;;;1.87;71.82;98583.94;4452112;32;34821;-84
2024/01/19 05:30:34;;;;;;;;;;;;;;;1.85;71.61;98590.75;4449714;32;34674;-84
2024/01/19 05:33:03;;;;;;;;;;;;;;;2.14;70.79;98578.91;4478595;32;34126;-84
2024/01/19 05:35:32;;;;;;;;;;;;;;;1.83;71.70;98575.37;4483908;31;33596;-84
2024/01/19 05:38:04;;;;;;;;;;;;;;;1.88;71.23;98570.28;4481357;32;33896;-85
2024/01/19 05:40:33;;;;;;;;;;;;;;;1.58;72.70;98564.22;4462752;32;33782;-85
2024/01/19 05:43:08;;;;;;;;;;;;;;;1.87;71.80;98564.34;4463039;32;33762;-84
2024/01/19 05:45:37;;;;;;;;;;;;;;;1.73;71.40;98567.69;4465675;32;32813;-84
2024/01/19 05:48:10;;;;;;;;;;;;;;;1.56;71.70;98555.69;4467927;32;33852;-84
2024/01/19 05:50:39;;;;;;;;;;;;;;;1.59;71.94;98559.94;4462162;32;33618;-84
2024/01/19 05:53:09;;;;;;;;;;;;;;;1.51;72.24;98559.91;4462674;32;33813;-84
2024/01/19 05:55:39;;;;;;;;;;;;;;;1.57;72.17;98547.19;4463870;32;33517;-84
2024/01/19 05:58:17;;;;;;;;;;;;;;;1.62;71.93;98547.16;4468531;32;33452;-84
2024/01/19 06:00:46;;;;;;;;;;;;;;;1.40;72.78;98556.44;4463669;32;33525;-84
2024/01/19 06:03:21;;;;;;;;;;;;;;;1.28;73.09;98558.09;4461910;32;34274;-84
2024/01/19 06:05:56;;;;;;;;;;;;;;;1.51;72.72;98561.63;4462243;32;33537;-84
2024/01/19 06:08:25;;;;;;;;;;;;;;;1.42;72.31;98564.97;4463702;32;34593;-84
2024/01/19 06:10:54;;;;;;;;;;;;;;;1.37;72.89;98566.66;4468267;32;34595;-83
2024/01/19 06:13:28;;;;;;;;;;;;;;;1.31;72.54;98564.09;4462607;32;33534;-84
2024/01/19 06:15:58;;;;;;;;;;;;;;;1.29;72.88;98574.28;4462713;32;34204;-84
2024/01/19 06:18:27;;;;;;;;;;;;;;;1.18;72.76;98584.41;4463093;32;33013;-84
2024/01/19 06:21:00;;;;;;;;;;;;;;;1.26;73.25;98600.66;4449103;32;34164;-85
2024/01/19 06:23:29;;;;;;;;;;;;;;;1.43;72.09;98618.66;4456976;32;33708;-84
2024/01/19 06:26:02;;;;;;;;;;;;;;;1.37;71.92;98617.75;4460560;32;32903;-84
2024/01/19 06:28:32;;;;;;;;;;;;;;;1.26;72.08;98631.34;4463246;32;33659;-84
2024/01/19 06:31:05;;;;;;;;;;;;;;;1.39;71.40;98627.16;4453471;32;36365;-85
2024/01/19 06:33:33;;;;;;;;;;;;;;;1.35;71.58;98633.06;4459262;32;34157;-84
2024/01/19 06:36:07;;;;;;;;;;;;;;;1.40;71.04;98636.53;4460972;32;33331;-83
2024/01/19 06:38:36;;;;;;;;;;;;;;;1.30;71.43;98637.31;4466636;32;34463;-84
2024/01/19 06:41:10;;;;;;;;;;;;;;;1.65;70.92;98659.69;4450504;32;33698;-84
2024/01/19 06:43:40;;;;;;;;;;;;;;;1.53;70.28;98670.69;4461780;32;33383;-84
2024/01/19 06:46:17;;;;;;;;;;;;;;;1.59;69.94;98677.53;4467952;32;33975;-84
2024/01/19 06:48:48;;;;;;;;;;;;;;;1.59;70.04;98669.88;4451572;32;34179;-84
2024/01/19 06:51:18;;;;;;;;;;;;;;;1.91;68.97;98672.63;4448234;32;33781;-85
2024/01/19 06:53:51;;;;;;;;;;;;;;;1.71;69.05;98680.16;4450510;32;33047;-84
2024/01/19 06:56:19;;;;;;;;;;;;;;;1.84;68.88;98688.78;4455849;32;33302;-84
2024/01/19 06:58:52;;;;;;;;;;;;;;;1.71;69.41;98688.69;4457583;32;34515;-83
2024/01/19 07:01:21;;;;;;;;;;;;;;;1.68;69.11;98696.34;4457946;32;33965;-84
2024/01/19 07:03:53;;;;;;;;;;;;;;;1.41;70.19;98719.16;4454916;32;33817;-84
2024/01/19 07:06:21;;;;;;;;;;;;;;;1.77;68.66;98733.06;4461329;32;32851;-84
2024/01/19 07:08:57;;;;;;;;;;;;;;;1.70;69.32;98743.25;4467428;32;33767;-85
2024/01/19 07:11:27;;;;;;;;;;;;;;;1.84;68.61;98748.44;4460577;32;34059;-84
2024/01/19 07:13:59;;;;;;;;;;;;;;;1.66;69.12;98755.97;4450884;32;35161;-85
2024/01/19 07:16:28;;;;;;;;;;;;;;;1.88;68.49;98772.34;4456776;32;32796;-84
2024/01/19 07:18:57;;;;;;;;;;;;;;;1.84;68.39;98775.72;4461552;32;33703;-84
2024/01/19 07:21:26;;;;;;;;;;;;;;;1.67;68.57;98786.69;4462965;32;34105;-84
2024/01/19 07:24:00;;;;;;;;;;;;;;;1.71;68.73;98777.31;4455736;32;33734;-84
2024/01/19 07:26:30;;;;;;;;;;;;;;;1.64;68.90;98784.13;4452023;32;33155;-84
2024/01/19 07:29:06;;;;;;;;;;;;;;;1.67;68.72;98781.56;4454759;32;34540;-84
2024/01/19 07:31:38;;;;;;;;;;;;;;;1.82;68.66;98787.66;4447901;32;35258;-84
2024/01/19 07:34:10;;;;;;;;;;;;;;;1.85;68.23;98775.72;4467274;32;33901;-84
2024/01/19 07:36:40;;;;;;;;;;;;;;;1.78;68.34;98783.34;4455133;32;32409;-84
2024/01/19 07:39:09;;;;;;;;;;;;;;;1.57;68.84;98802.81;4446903;32;34870;-84
2024/01/19 07:41:38;;;;;;;;;;;;;;;1.57;69.41;98804.47;4456944;32;34289;-84
2024/01/19 07:44:14;;;;;;;;;;;;;;;1.76;68.98;98801.22;4455207;32;34241;-85
2024/01/19 07:46:46;;;;;;;;;;;;;;;1.59;68.78;98808.75;4446933;32;34626;-85
2024/01/19 07:49:20;;;;;;;;;;;;;;;1.23;70.29;98830.59;4460812;32;33461;-84
2024/01/19 07:51:59;;;;;;;;;;;;;;;1.41;71.46;98834.16;4450287;32;34730;-85
2024/01/19 07:54:31;;;;;;;;;;;;;;;1.56;70.92;98841.97;4454235;32;33873;-85
2024/01/19 07:56:59;;;;;;;;;;;;;;;1.54;71.68;98845.34;4468240;32;32458;-84
2024/01/19 07:59:30;;;;;;;;;;;;;;;1.53;71.05;98833.44;4452685;32;33922;-84
2024/01/19 08:02:00;;;;;;;;;;;;;;;1.27;72.03;98839.97;4463678;32;34945;-84
2024/01/19 08:04:30;;;;;;;;;;;;;;;1.41;70.91;98844.38;4459073;32;34264;-85
2024/01/19 08:07:02;;;;;;;;;;;;;;;1.20;71.70;98837.34;4452086;32;32866;-85
2024/01/19 08:09:37;;;;;;;;;;;;;;;1.20;72.23;98833.09;4455106;32;33751;-84
2024/01/19 08:12:06;;;;;;;;;;;;;;;1.32;71.71;98823.84;4447835;32;33709;-85
2024/01/19 08:14:39;;;;;;;;;;;;;;;1.51;71.03;98828.28;4447969;32;34163;-84
2024/01/19 08:17:07;;;;;;;;;;;;;;;1.59;71.07;98816.44;4459451;32;32992;-84
2024/01/19 08:19:38;;;;;;;;;;;;;;;1.45;70.87;98824.00;4461193;32;34740;-84
2024/01/19 08:22:07;;;;;;;;;;;;;;;1.30;72.29;98826.38;4459058;32;35033;-84
2024/01/19 08:24:39;;;;;;;;;;;;;;;1.39;71.77;98815.41;4463286;32;34178;-84
2024/01/19 08:27:08;;;;;;;;;;;;;;;1.22;71.22;98840.78;4455143;32;33504;-84
2024/01/19 08:29:41;;;;;;;;;;;;;;;1.27;71.19;98832.31;4455386;32;34120;-84
2024/01/19 08:32:09;;;;;;;;;;;;;;;1.39;69.58;98840.97;4458042;32;34426;-84
2024/01/19 08:34:44;;;;;;;;;;;;;;;1.20;69.36;98858.63;4458546;32;34314;-85
2024/01/19 08:37:13;;;;;;;;;;;;;;;1.38;69.08;98865.66;4440821;32;31712;-84
2024/01/19 08:39:44;;;;;;;;;;;;;;;1.55;68.04;98857.28;4451399;32;33713;-84
2024/01/19 08:42:13;;;;;;;;;;;;;;;1.60;67.18;98864.16;4454955;32;35070;-85
2024/01/19 08:44:46;;;;;;;;;;;;;;;1.56;67.16;98874.34;4462295;32;34968;-84
2024/01/19 08:47:16;;;;;;;;;;;;;;;1.49;66.91;98865.75;4456459;32;33409;-84
2024/01/19 08:49:44;;;;;;;;;;;;;;;1.59;66.95;98879.47;4437266;32;33084;-84
2024/01/19 08:52:15;;;;;;;;;;;;;;;1.44;66.43;98877.62;4448669;32;34719;-84
2024/01/19 08:54:48;;;;;;;;;;;;;;;1.37;67.35;98879.25;4456140;32;33378;-84
2024/01/19 08:57:18;;;;;;;;;;;;;;;1.56;67.25;98866.69;4437567;32;31801;-84
2024/01/19 08:59:52;;;;;;;;;;;;;;;1.55;67.52;98875.19;4451962;32;34157;-84
2024/01/19 09:02:21;;;;;;;;;;;;;;;1.52;67.98;98880.25;4439776;32;34540;-84
2024/01/19 09:04:52;;;;;;;;;;;;;;;1.52;68.40;98888.78;4454748;32;33650;-84
2024/01/19 09:07:21;;;;;;;;;;;;;;;1.60;67.59;98888.87;4457354;32;33032;-84
2024/01/19 09:09:51;;;;;;;;;;;;;;;1.57;67.90;98897.38;4455871;32;33632;-84
2024/01/19 09:12:21;;;;;;;;;;;;;;;1.60;67.00;98905.06;4459839;32;33319;-84
2024/01/19 09:14:55;;;;;;;;;;;;;;;1.86;66.71;98909.56;4448192;32;34964;-84
2024/01/19 09:17:24;;;;;;;;;;;;;;;1.84;65.61;98914.69;4458796;32;33318;-84
2024/01/19 09:19:56;;;;;;;;;;;;;;;1.67;66.21;98919.63;4454886;32;34472;-83
2024/01/19 09:22:27;;;;;;;;;;;;;;;1.81;66.48;98917.22;4452515;32;34284;-84
2024/01/19 09:24:56;;;;;;;;;;;;;;;1.96;64.81;98933.53;4453038;32;33727;-85
2024/01/19 09:27:26;;;;;;;;;;;;;;;1.92;65.87;98941.19;4455236;32;33064;-83
2024/01/19 09:30:00;;;;;;;;;;;;;;;1.78;65.98;98936.78;4454204;32;34435;-85
2024/01/19 09:32:31;;;;;;;;;;;;;;;1.92;65.17;98945.44;4436521;32;33148;-84
2024/01/19 09:35:02;;;;;;;;;;;;;;;2.15;65.27;98945.66;4450629;32;33164;-84
2024/01/19 09:37:31;;;;;;;;;;;;;;;2.09;64.25;98955.84;4454774;32;33397;-85
2024/01/19 09:40:02;;;;;;;;;;;;;;;2.09;64.78;98959.25;4465545;32;33535;-84
2024/01/19 09:42:33;;;;;;;;;;;;;;;2.42;64.14;98949.28;4464162;32;35295;-85
2024/01/19 09:45:10;;;;;;;;;;;;;;;2.25;64.54;98952.56;4474247;32;35649;-85
2024/01/19 09:47:48;;;;;;;;;;;;;;;2.33;65.00;98961.16;4481347;32;32754;-84
2024/01/19 09:50:21;;;;;;;;;;;;;;;2.32;62.80;98971.37;4462193;32;34100;-84
2024/01/19 09:52:59;;;;;;;;;;;;;;;2.18;64.16;98968.72;4462411;32;33400;-85
2024/01/19 09:55:36;;;;;;;;;;;;;;;1.79;67.58;98967.50;4458354;32;33922;-84
2024/01/19 09:58:05;;;;;;;;;;;;;;;1.62;70.31;98972.44;4460411;32;33432;-85
2024/01/19 10:00:35;;;;;;;;;;;;;;;1.68;71.43;98977.59;4457712;32;34008;-84
2024/01/19 10:03:10;;;;;;;;;;;;;;;1.52;72.64;98972.28;4448642;32;34632;-84
2024/01/19 10:05:39;;;;;;;;;;;;;;;1.43;73.39;98980.72;4459501;32;34437;-85
2024/01/19 10:08:08;;;;;;;;;;;;;;;1.49;73.71;98981.63;4453899;32;33722;-85
2024/01/19 10:10:40;;;;;;;;;;;;;;;1.63;73.17;98989.47;4455017;32;34372;-84
2024/01/19 10:13:09;;;;;;;;;;;;;;;1.82;70.86;98994.78;4451607;32;33846;-85
2024/01/19 10:15:42;;;;;;;;;;;;;;;1.86;71.67;98991.41;4452604;32;33824;-85
2024/01/19 10:18:17;;;;;;;;;;;;;;;2.10;69.46;98993.34;4459857;32;33258;-85
2024/01/19 10:20:58;;;;;;;;;;;;;;;2.09;70.54;98999.31;4448709;32;34673;-85
2024/01/19 10:23:26;;;;;;;;;;;;;;;2.23;69.85;98995.19;4449137;32;33802;-85
2024/01/19 10:26:12;;;;;;;;;;;;;;;2.37;68.45;98999.56;4455769;32;33700;-86
2024/01/19 10:28:43;;;;;;;;;;;;;;;2.38;68.54;99012.38;4450518;32;33054;-85
2024/01/19 10:31:30;;;;;;;;;;;;;;;2.25;69.03;99031.91;4456924;32;34176;-85
2024/01/19 10:33:59;;;;;;;;;;;;;;;2.07;69.88;99042.78;4454499;31;33895;-85
2024/01/19 10:36:39;;;;;;;;;;;;;;;1.73;71.62;99051.78;4448985;32;33853;-85
2024/01/19 10:39:17;;;;;;;;;;;;;;;1.99;71.36;99049.53;4458449;32;33593;-85
2024/01/19 10:41:51;;;;;;;;;;;;;;;2.09;71.21;99053.06;4451273;32;33486;-85
2024/01/19 10:44:21;;;;;;;;;;;;;;;1.80;71.64;99062.97;4453193;32;33895;-85
2024/01/19 10:46:52;;;;;;;;;;;;;;;1.54;72.36;99068.59;4458039;32;34698;-85
2024/01/19 10:49:22;;;;;;;;;;;;;;;1.50;73.22;99079.66;4459499;32;33539;-85
2024/01/19 10:51:56;;;;;;;;;;;;;;;1.33;74.10;99091.31;4443402;32;32558;-85
2024/01/19 10:54:25;;;;;;;;;;;;;;;1.43;74.05;99105.97;4444938;32;34513;-85
2024/01/19 10:57:04;;;;;;;;;;;;;;;1.38;74.35;99121.22;4443609;32;33987;-86
2024/01/19 10:59:35;;;;;;;;;;;;;;;0.81;75.43;99132.25;4437627;32;33976;-85
2024/01/19 11:02:04;;;;;;;;;;;;;;;0.88;75.99;99140.88;4429995;32;32181;-85
2024/01/19 11:04:37;;;;;;;;;;;;;;;1.00;74.23;99139.37;4440517;32;32572;-86
2024/01/19 11:07:10;;;;;;;;;;;;;;;0.85;73.00;99136.56;4437074;32;34596;-85
2024/01/19 11:09:40;;;;;;;;;;;;;;;1.13;72.07;99137.00;4444464;32;33650;-85
2024/01/19 11:12:10;;;;;;;;;;;;;;;1.39;71.87;99139.97;4438708;32;34775;-85
2024/01/19 11:14:39;;;;;;;;;;;;;;;1.31;70.61;99155.19;4446618;32;34006;-85
2024/01/19 11:17:08;;;;;;;;;;;;;;;1.22;71.15;99166.12;4437592;32;34982;-85
2024/01/19 11:19:37;;;;;;;;;;;;;;;1.24;71.19;99156.78;4441963;32;32152;-85
2024/01/19 11:22:06;;;;;;;;;;;;;;;1.53;70.12;99163.19;4438905;32;34930;-85
2024/01/19 11:24:36;;;;;;;;;;;;;;;1.28;71.40;99163.66;4439213;32;33926;-84
2024/01/19 11:27:12;;;;;;;;;;;;;;;1.13;71.57;99172.78;4441039;32;33959;-84
2024/01/19 11:29:46;;;;;;;;;;;;;;;0.90;73.00;99169.84;4435507;32;32870;-85
2024/01/19 11:32:15;;;;;;;;;;;;;;;1.04;73.76;99168.38;4440410;32;34462;-85
2024/01/19 11:34:48;;;;;;;;;;;;;;;1.25;72.24;99184.03;4447091;32;34067;-85
2024/01/19 11:37:36;;;;;;;;;;;;;;;0.94;73.37;99179.25;4448884;32;33533;-85
2024/01/19 11:40:08;;;;;;;;;;;;;;;1.15;72.47;99173.66;4448643;32;33477;-87
2024/01/19 11:42:47;;;;;;;;;;;;;;;0.99;73.45;99167.44;4435093;32;33716;-86
2024/01/19 11:45:34;;;;;;;;;;;;;;;1.02;74.59;99170.91;4453444;32;34723;-86
2024/01/19 11:48:03;;;;;;;;;;;;;;;1.05;74.24;99167.53;4448511;32;33767;-86
2024/01/19 11:50:38;;;;;;;;;;;;;;;1.37;72.85;99165.50;4443199;32;32423;-86
2024/01/19 11:53:08;;;;;;;;;;;;;;;1.25;72.99;99173.81;4450662;32;34048;-86
2024/01/19 11:55:47;;;;;;;;;;;;;;;1.18;73.08;99186.47;4454296;32;33789;-86
2024/01/19 11:58:29;;;;;;;;;;;;;;;1.16;71.57;99173.69;4455306;32;34532;-86
2024/01/19 12:01:03;;;;;;;;;;;;;;;1.25;71.63;99171.25;4467281;32;34239;-85
2024/01/19 12:03:32;;;;;;;;;;;;;;;1.54;70.87;99170.84;4437267;32;35904;-85
2024/01/19 12:06:05;;;;;;;;;;;;;;;1.62;70.42;99169.28;4454977;32;33720;-85
2024/01/19 12:08:39;;;;;;;;;;;;;;;1.52;70.94;99174.22;4456198;32;34532;-85
2024/01/19 12:11:13;;;;;;;;;;;;;;;1.74;68.62;99183.94;4465750;32;34039;-86
2024/01/19 12:13:48;;;;;;;;;;;;;;;1.85;68.90;99187.50;4462283;32;34146;-86
2024/01/19 12:16:30;;;;;;;;;;;;;;;1.69;69.44;99193.22;4456417;32;34132;-85
2024/01/19 12:18:59;;;;;;;;;;;;;;;1.77;68.70;99190.81;4460881;32;34311;-85
2024/01/19 12:21:28;;;;;;;;;;;;;;;2.00;67.03;99199.63;4460516;32;33833;-85
2024/01/19 12:23:57;;;;;;;;;;;;;;;1.92;66.00;99208.91;4460451;32;34795;-86
2024/01/19 12:26:40;;;;;;;;;;;;;;;1.89;65.80;99207.16;4452709;32;34175;-86
2024/01/19 12:29:09;;;;;;;;;;;;;;;1.91;66.22;99209.75;4456547;32;33779;-87
2024/01/19 12:31:46;;;;;;;;;;;;;;;2.13;65.36;99209.19;4453216;32;33516;-87
2024/01/19 12:34:19;;;;;;;;;;;;;;;2.38;64.80;99208.63;4451826;32;33647;-87
2024/01/19 12:36:48;;;;;;;;;;;;;;;2.40;62.54;99202.69;4454208;32;33772;-87
2024/01/19 12:39:21;;;;;;;;;;;;;;;2.29;63.66;99211.94;4456120;32;34670;-87
2024/01/19 12:42:02;;;;;;;;;;;;;;;2.50;62.75;99225.00;4460977;32;33004;-86
2024/01/19 12:44:32;;;;;;;;;;;;;;;2.48;62.74;99208.75;4450032;32;33721;-86
2024/01/19 12:47:02;;;;;;;;;;;;;;;2.53;61.82;99219.06;4455725;32;34724;-86
2024/01/19 12:49:30;;;;;;;;;;;;;;;2.24;62.71;99224.66;4457231;32;34703;-86
2024/01/19 12:52:18;;;;;;;;;;;;;;;2.43;62.14;99245.38;4451502;32;33792;-86
2024/01/19 12:54:55;;;;;;;;;;;;;;;2.58;61.71;99258.38;4459395;32;33596;-86
2024/01/19 12:57:28;;;;;;;;;;;;;;;2.36;61.45;99257.25;4467710;32;34173;-86
2024/01/19 13:00:10;;;;;;;;;;;;;;;2.58;61.51;99257.50;4455507;32;34324;-85
2024/01/19 13:02:40;;;;;;;;;;;;;;;2.44;61.93;99259.91;4450268;32;32789;-86
2024/01/19 13:05:18;;;;;;;;;;;;;;;2.58;62.71;99266.06;4453151;32;35067;-86
2024/01/19 13:07:55;;;;;;;;;;;;;;;2.75;60.74;99263.69;4450400;32;33967;-86
2024/01/19 13:10:24;;;;;;;;;;;;;;;3.01;60.02;99263.13;4447898;32;34011;-86
2024/01/19 13:13:06;;;;;;;;;;;;;;;2.84;60.28;99262.94;4448115;32;33207;-86
2024/01/19 13:15:36;;;;;;;;;;;;;;;2.58;60.51;99267.75;4449240;32;34215;-86
2024/01/19 13:18:10;;;;;;;;;;;;;;;2.37;61.84;99273.47;4452875;32;33697;-86
2024/01/19 13:20:40;;;;;;;;;;;;;;;2.70;61.10;99280.72;4449594;32;33410;-86
2024/01/19 13:23:10;;;;;;;;;;;;;;;2.68;60.35;99279.81;4447589;32;33046;-86